<?xml version="1.0" encoding="UTF-8" standalone="no" ?>
<gpx xmlns="http://www.topografix.com/GPX/1/1" xmlns:xsi="http://www.w3.org/2001/XMLSchema-instance" xsi:schemaLocation="http://www.topografix.com/GPX/1/1 http://www.topografix.com/GPX/1/1/gpx.xsd" version="1.1" creator="VisuGPX - https://www.visugpx.com">
  <metadata>
    <name>sigean le rieu et les sentiers de roquefort</name>
    <desc><![CDATA[il me manque la fin  car mon gps c'est arrêté............]]></desc>
  </metadata>
  <trk>
    <name><![CDATA[sigean le rieu et les sentiers de roquefort_10]]></name>
    <trkseg>
      <trkpt lat="43.01212" lon="2.94404">
        <ele>96</ele>
        <time>2020-06-03T14:06:50.000Z</time>
      </trkpt>
      <trkpt lat="43.01236" lon="2.94461">
        <ele>96</ele>
        <time>2020-06-03T14:06:58.000Z</time>
      </trkpt>
      <trkpt lat="43.01242" lon="2.94475">
        <ele>95.6</ele>
        <time>2020-06-03T14:07:00.000Z</time>
      </trkpt>
      <trkpt lat="43.01245" lon="2.94482">
        <ele>95.2</ele>
        <time>2020-06-03T14:07:01.000Z</time>
      </trkpt>
      <trkpt lat="43.01248" lon="2.94489">
        <ele>94.8</ele>
        <time>2020-06-03T14:07:02.000Z</time>
      </trkpt>
      <trkpt lat="43.01251" lon="2.94496">
        <ele>94.4</ele>
        <time>2020-06-03T14:07:03.000Z</time>
      </trkpt>
      <trkpt lat="43.01254" lon="2.94504">
        <ele>94</ele>
        <time>2020-06-03T14:07:04.000Z</time>
      </trkpt>
      <trkpt lat="43.0126" lon="2.94519">
        <ele>94</ele>
        <time>2020-06-03T14:07:06.000Z</time>
      </trkpt>
      <trkpt lat="43.01275" lon="2.94557">
        <ele>93.6</ele>
        <time>2020-06-03T14:07:11.000Z</time>
      </trkpt>
      <trkpt lat="43.01278" lon="2.94565">
        <ele>93.2</ele>
        <time>2020-06-03T14:07:12.000Z</time>
      </trkpt>
      <trkpt lat="43.0128" lon="2.94574">
        <ele>92.6</ele>
        <time>2020-06-03T14:07:13.000Z</time>
      </trkpt>
      <trkpt lat="43.01282" lon="2.94582">
        <ele>92.2</ele>
        <time>2020-06-03T14:07:14.000Z</time>
      </trkpt>
      <trkpt lat="43.01284" lon="2.94591">
        <ele>91.8</ele>
        <time>2020-06-03T14:07:15.000Z</time>
      </trkpt>
      <trkpt lat="43.01295" lon="2.94634">
        <ele>91.8</ele>
        <time>2020-06-03T14:07:20.000Z</time>
      </trkpt>
      <trkpt lat="43.01297" lon="2.94643">
        <ele>91</ele>
        <time>2020-06-03T14:07:21.000Z</time>
      </trkpt>
      <trkpt lat="43.013" lon="2.94652">
        <ele>90.4</ele>
        <time>2020-06-03T14:07:22.000Z</time>
      </trkpt>
      <trkpt lat="43.01302" lon="2.94661">
        <ele>90</ele>
        <time>2020-06-03T14:07:23.000Z</time>
      </trkpt>
      <trkpt lat="43.01304" lon="2.9467">
        <ele>89.6</ele>
        <time>2020-06-03T14:07:24.000Z</time>
      </trkpt>
      <trkpt lat="43.01316" lon="2.94715">
        <ele>89.6</ele>
        <time>2020-06-03T14:07:29.000Z</time>
      </trkpt>
      <trkpt lat="43.01318" lon="2.94725">
        <ele>89.2</ele>
        <time>2020-06-03T14:07:30.000Z</time>
      </trkpt>
      <trkpt lat="43.0132" lon="2.94734">
        <ele>88.6</ele>
        <time>2020-06-03T14:07:31.000Z</time>
      </trkpt>
      <trkpt lat="43.01323" lon="2.94743">
        <ele>88.2</ele>
        <time>2020-06-03T14:07:32.000Z</time>
      </trkpt>
      <trkpt lat="43.01325" lon="2.94753">
        <ele>87.8</ele>
        <time>2020-06-03T14:07:33.000Z</time>
      </trkpt>
      <trkpt lat="43.01328" lon="2.94763">
        <ele>87.4</ele>
        <time>2020-06-03T14:07:34.000Z</time>
      </trkpt>
      <trkpt lat="43.01335" lon="2.94793">
        <ele>87</ele>
        <time>2020-06-03T14:07:37.000Z</time>
      </trkpt>
      <trkpt lat="43.01338" lon="2.94803">
        <ele>86.4</ele>
        <time>2020-06-03T14:07:38.000Z</time>
      </trkpt>
      <trkpt lat="43.0134" lon="2.94814">
        <ele>86</ele>
        <time>2020-06-03T14:07:39.000Z</time>
      </trkpt>
      <trkpt lat="43.01343" lon="2.94824">
        <ele>85.6</ele>
        <time>2020-06-03T14:07:40.000Z</time>
      </trkpt>
      <trkpt lat="43.01346" lon="2.94835">
        <ele>85.2</ele>
        <time>2020-06-03T14:07:41.000Z</time>
      </trkpt>
      <trkpt lat="43.01348" lon="2.94846">
        <ele>84.6</ele>
        <time>2020-06-03T14:07:42.000Z</time>
      </trkpt>
      <trkpt lat="43.01351" lon="2.94857">
        <ele>84.2</ele>
        <time>2020-06-03T14:07:43.000Z</time>
      </trkpt>
      <trkpt lat="43.01354" lon="2.94868">
        <ele>83.8</ele>
        <time>2020-06-03T14:07:44.000Z</time>
      </trkpt>
      <trkpt lat="43.01357" lon="2.94879">
        <ele>83.2</ele>
        <time>2020-06-03T14:07:45.000Z</time>
      </trkpt>
      <trkpt lat="43.0136" lon="2.94891">
        <ele>82.4</ele>
        <time>2020-06-03T14:07:46.000Z</time>
      </trkpt>
      <trkpt lat="43.01362" lon="2.94903">
        <ele>82</ele>
        <time>2020-06-03T14:07:47.000Z</time>
      </trkpt>
      <trkpt lat="43.01365" lon="2.94914">
        <ele>81.6</ele>
        <time>2020-06-03T14:07:48.000Z</time>
      </trkpt>
      <trkpt lat="43.01368" lon="2.94925">
        <ele>81</ele>
        <time>2020-06-03T14:07:49.000Z</time>
      </trkpt>
    </trkseg>
  </trk>
</gpx>